Time;durP1;ratioP1;P1;durP2;ratioP2;P2;SDS_P1;SDS_P2;PMS_P1;PMS_P2;Temp;Humidity;BMP_temperature;BMP_pressure;BME280_temperature;BME280_humidity;BME280_pressure;Samples;Min_cycle;Max_cycle;Signal;HPM_P1;HPM_P2
2023/08/16 00:01:43;;;;;;;9.88;7.70;;;;;;;;;;5011555;28;20048;-63
2023/08/16 00:04:09;;;;;;;10.37;7.77;;;;;;;;;;5011889;28;20184;-64
2023/08/16 00:06:36;;;;;;;9.13;6.90;;;;;;;;;;5016732;28;20276;-64
2023/08/16 00:09:02;;;;;;;9.38;7.32;;;;;;;;;;5013054;28;20021;-64
2023/08/16 00:11:27;;;;;;;7.95;6.82;;;;;;;;;;5018202;28;20024;-65
2023/08/16 00:13:53;;;;;;;9.53;7.03;;;;;;;;;;5016097;28;20697;-66
2023/08/16 00:16:21;;;;;;;7.53;6.60;;;;;;;;;;5017430;28;20350;-64
2023/08/16 00:18:46;;;;;;;9.90;6.68;;;;;;;;;;5015165;28;20083;-64
2023/08/16 00:21:14;;;;;;;9.83;6.93;;;;;;;;;;5018614;28;20416;-65
2023/08/16 00:23:40;;;;;;;8.83;6.87;;;;;;;;;;5016744;28;20021;-64
2023/08/16 00:26:05;;;;;;;7.90;6.80;;;;;;;;;;5019800;28;20047;-64
2023/08/16 00:28:32;;;;;;;8.83;7.37;;;;;;;;;;5019135;28;20288;-63
2023/08/16 00:31:00;;;;;;;8.18;6.57;;;;;;;;;;5004856;28;20030;-65
2023/08/16 00:33:25;;;;;;;8.50;7.43;;;;;;;;;;5018124;28;20645;-63
2023/08/16 00:35:53;;;;;;;8.50;7.10;;;;;;;;;;5027784;28;20076;-64
2023/08/16 00:38:21;;;;;;;8.30;7.25;;;;;;;;;;5016780;28;20024;-64
2023/08/16 00:40:49;;;;;;;9.15;7.20;;;;;;;;;;5011526;28;20018;-65
2023/08/16 00:43:15;;;;;;;8.65;7.75;;;;;;;;;;5012025;28;20037;-64
2023/08/16 00:45:41;;;;;;;8.82;7.32;;;;;;;;;;5002898;28;20088;-64
2023/08/16 00:48:07;;;;;;;8.05;7.25;;;;;;;;;;5014376;28;20051;-65
2023/08/16 00:50:32;;;;;;;9.43;7.63;;;;;;;;;;5015743;28;20767;-64
2023/08/16 00:52:57;;;;;;;8.80;7.63;;;;;;;;;;5013929;28;20294;-65
2023/08/16 00:55:22;;;;;;;8.90;7.77;;;;;;;;;;5017549;28;20025;-65
2023/08/16 00:57:48;;;;;;;8.65;7.28;;;;;;;;;;5014414;28;20384;-63
2023/08/16 01:00:14;;;;;;;8.50;7.38;;;;;;;;;;5017579;28;20091;-64
2023/08/16 01:02:39;;;;;;;7.95;7.15;;;;;;;;;;5015669;28;20025;-63
2023/08/16 01:05:05;;;;;;;8.13;6.87;;;;;;;;;;5020263;28;20029;-64
2023/08/16 01:07:31;;;;;;;11.85;7.00;;;;;;;;;;5020878;28;20017;-64
2023/08/16 01:09:58;;;;;;;8.63;6.57;;;;;;;;;;5025040;28;20033;-64
2023/08/16 01:12:36;;;;;;;8.52;6.20;;;;;;;;;;5016818;28;20502;-64
2023/08/16 01:15:10;;;;;;;9.18;6.30;;;;;;;;;;5015719;28;20040;-64
2023/08/16 01:17:40;;;;;;;8.02;6.45;;;;;;;;;;5019049;28;20055;-65
2023/08/16 01:20:07;;;;;;;7.72;6.10;;;;;;;;;;5020832;28;20013;-63
2023/08/16 01:22:42;;;;;;;8.48;6.28;;;;;;;;;;5035888;28;20053;-66
2023/08/16 01:25:08;;;;;;;8.30;6.10;;;;;;;;;;5016224;28;20556;-64
2023/08/16 01:27:34;;;;;;;8.00;6.30;;;;;;;;;;5015586;28;20025;-64
2023/08/16 01:30:01;;;;;;;9.95;5.82;;;;;;;;;;5049286;28;20018;-63
2023/08/16 01:32:31;;;;;;;7.10;6.28;;;;;;;;;;5027904;28;20024;-64
2023/08/16 01:34:57;;;;;;;7.50;6.65;;;;;;;;;;5017802;28;20030;-64
2023/08/16 01:37:22;;;;;;;7.90;6.22;;;;;;;;;;5017231;28;20032;-64
2023/08/16 01:39:49;;;;;;;8.97;6.37;;;;;;;;;;5018704;28;20448;-65
2023/08/16 01:42:17;;;;;;;9.40;6.75;;;;;;;;;;5017020;28;20256;-64
2023/08/16 01:44:46;;;;;;;7.13;6.43;;;;;;;;;;5020608;28;20039;-67
2023/08/16 01:47:12;;;;;;;7.80;6.68;;;;;;;;;;5021816;28;20543;-64
2023/08/16 01:49:39;;;;;;;9.00;6.07;;;;;;;;;;5017029;28;20641;-64
2023/08/16 01:52:04;;;;;;;9.60;6.88;;;;;;;;;;5022052;28;20020;-64
2023/08/16 01:54:32;;;;;;;9.60;6.85;;;;;;;;;;5011302;28;20036;-65
2023/08/16 01:56:57;;;;;;;7.75;6.45;;;;;;;;;;5022945;28;20437;-64
2023/08/16 01:59:25;;;;;;;8.50;5.83;;;;;;;;;;5021436;28;20113;-65
2023/08/16 02:01:50;;;;;;;7.55;5.97;;;;;;;;;;5014034;28;20299;-66
2023/08/16 02:04:18;;;;;;;7.17;5.93;;;;;;;;;;5016280;28;20100;-63
2023/08/16 02:06:46;;;;;;;8.18;6.20;;;;;;;;;;5021239;28;20025;-66
2023/08/16 02:09:11;;;;;;;6.97;5.78;;;;;;;;;;5016388;28;21304;-64
2023/08/16 02:11:38;;;;;;;10.00;6.33;;;;;;;;;;5021812;28;20021;-66
2023/08/16 02:14:06;;;;;;;8.15;6.00;;;;;;;;;;5013606;28;20268;-63
2023/08/16 02:16:31;;;;;;;7.00;6.15;;;;;;;;;;5016281;28;20036;-64
2023/08/16 02:18:56;;;;;;;9.27;6.10;;;;;;;;;;5016665;28;20025;-64
2023/08/16 02:21:24;;;;;;;9.10;6.40;;;;;;;;;;5013112;28;20057;-64
2023/08/16 02:23:50;;;;;;;7.88;6.40;;;;;;;;;;5014775;28;20021;-64
2023/08/16 02:26:16;;;;;;;6.93;6.03;;;;;;;;;;5018882;28;20057;-67
2023/08/16 02:28:41;;;;;;;8.97;6.00;;;;;;;;;;5014236;28;20093;-66
2023/08/16 02:31:09;;;;;;;7.57;6.23;;;;;;;;;;5019120;28;20754;-64
2023/08/16 02:33:34;;;;;;;7.72;6.00;;;;;;;;;;5019348;28;20014;-64
2023/08/16 02:36:02;;;;;;;7.40;6.38;;;;;;;;;;5017699;28;20029;-64
2023/08/16 02:38:30;;;;;;;11.20;6.80;;;;;;;;;;5015389;28;20048;-65
2023/08/16 02:40:56;;;;;;;10.27;6.30;;;;;;;;;;5017583;28;20107;-63
2023/08/16 02:43:21;;;;;;;7.70;6.32;;;;;;;;;;5018234;28;20567;-65
2023/08/16 02:45:46;;;;;;;10.07;6.70;;;;;;;;;;5017120;28;20057;-65
2023/08/16 02:48:11;;;;;;;8.47;6.70;;;;;;;;;;5015475;28;20588;-63
2023/08/16 02:50:37;;;;;;;7.90;6.93;;;;;;;;;;5016827;28;20271;-65
2023/08/16 02:53:03;;;;;;;8.88;6.43;;;;;;;;;;5012168;28;20056;-66
2023/08/16 02:55:30;;;;;;;8.05;6.85;;;;;;;;;;5016413;28;20815;-63
2023/08/16 02:57:56;;;;;;;8.85;6.90;;;;;;;;;;5007231;28;20026;-64
2023/08/16 03:00:21;;;;;;;8.17;7.03;;;;;;;;;;5014296;28;20039;-63
2023/08/16 03:02:47;;;;;;;8.07;6.47;;;;;;;;;;5015969;28;20541;-62
2023/08/16 03:05:14;;;;;;;8.70;6.80;;;;;;;;;;5013155;28;20061;-64
2023/08/16 03:07:39;;;;;;;8.35;6.22;;;;;;;;;;5033416;28;20271;-64
2023/08/16 03:10:08;;;;;;;8.75;6.75;;;;;;;;;;5015440;28;20055;-65
2023/08/16 03:12:33;;;;;;;8.23;6.50;;;;;;;;;;5017708;28;20022;-65
2023/08/16 03:14:58;;;;;;;9.48;6.85;;;;;;;;;;5012554;28;20550;-69
2023/08/16 03:17:27;;;;;;;8.43;6.50;;;;;;;;;;5031277;28;20579;-65
2023/08/16 03:19:53;;;;;;;8.48;6.47;;;;;;;;;;5017943;28;20751;-65
2023/08/16 03:22:18;;;;;;;9.67;6.67;;;;;;;;;;5018060;28;20045;-64
2023/08/16 03:24:49;;;;;;;7.93;6.27;;;;;;;;;;5016463;28;20377;-66
2023/08/16 03:27:15;;;;;;;6.90;5.95;;;;;;;;;;5014541;28;20299;-62
2023/08/16 03:29:46;;;;;;;9.57;6.40;;;;;;;;;;5011752;28;20459;-65
2023/08/16 03:32:11;;;;;;;8.00;6.28;;;;;;;;;;5014401;28;21174;-64
2023/08/16 03:34:36;;;;;;;8.00;6.40;;;;;;;;;;5018844;28;20040;-66
2023/08/16 03:37:01;;;;;;;7.67;6.27;;;;;;;;;;5014856;28;20319;-65
2023/08/16 03:39:29;;;;;;;8.73;5.90;;;;;;;;;;5016138;28;20017;-65
2023/08/16 03:41:54;;;;;;;8.70;5.78;;;;;;;;;;5015692;28;20427;-63
2023/08/16 03:44:20;;;;;;;7.60;5.87;;;;;;;;;;5019318;28;20024;-64
2023/08/16 03:46:45;;;;;;;7.27;5.87;;;;;;;;;;5047112;28;20255;-64
2023/08/16 03:49:10;;;;;;;7.67;6.20;;;;;;;;;;5020561;28;20295;-65
2023/08/16 03:51:35;;;;;;;6.80;5.33;;;;;;;;;;5007565;28;20261;-66
2023/08/16 03:54:01;;;;;;;7.78;5.63;;;;;;;;;;5013970;28;20029;-64
2023/08/16 03:56:27;;;;;;;7.70;5.55;;;;;;;;;;5018306;28;20025;-64
2023/08/16 03:58:54;;;;;;;7.93;5.07;;;;;;;;;;5015522;28;20651;-65
2023/08/16 04:01:20;;;;;;;8.00;5.70;;;;;;;;;;5006450;28;20037;-66
2023/08/16 04:03:46;;;;;;;8.23;5.53;;;;;;;;;;5010092;28;20013;-65
2023/08/16 04:06:14;;;;;;;6.60;5.13;;;;;;;;;;5004854;28;20695;-66
2023/08/16 04:08:39;;;;;;;9.77;5.22;;;;;;;;;;5007663;28;20056;-65
2023/08/16 04:11:05;;;;;;;6.88;4.93;;;;;;;;;;5042080;28;20833;-65
2023/08/16 04:13:35;;;;;;;6.40;4.93;;;;;;;;;;5000971;28;20387;-66
2023/08/16 04:16:00;;;;;;;7.05;4.78;;;;;;;;;;5016399;28;20033;-64
2023/08/16 04:18:27;;;;;;;7.82;4.68;;;;;;;;;;5005909;28;20111;-63
2023/08/16 04:20:52;;;;;;;8.57;5.00;;;;;;;;;;5002535;28;20058;-64
2023/08/16 04:23:19;;;;;;;6.27;4.63;;;;;;;;;;5004822;28;21468;-66
2023/08/16 04:25:47;;;;;;;7.45;5.35;;;;;;;;;;5016851;28;20029;-63
2023/08/16 04:28:15;;;;;;;5.80;4.22;;;;;;;;;;5001870;28;20034;-67
2023/08/16 04:30:42;;;;;;;6.45;4.80;;;;;;;;;;5018485;28;20021;-61
2023/08/16 04:33:07;;;;;;;7.93;5.18;;;;;;;;;;5013167;28;20041;-64
2023/08/16 04:35:35;;;;;;;6.40;5.23;;;;;;;;;;5012846;28;20017;-66
2023/08/16 04:38:00;;;;;;;6.30;5.07;;;;;;;;;;5022944;28;20037;-67
2023/08/16 04:40:26;;;;;;;7.13;5.72;;;;;;;;;;5001983;28;20419;-67
2023/08/16 04:42:51;;;;;;;6.75;5.43;;;;;;;;;;5004595;28;20132;-65
2023/08/16 04:45:19;;;;;;;8.23;5.90;;;;;;;;;;5000470;28;20034;-66
2023/08/16 04:47:46;;;;;;;7.55;5.80;;;;;;;;;;5003835;28;20029;-66
2023/08/16 04:50:12;;;;;;;7.75;5.32;;;;;;;;;;5004020;28;20014;-65
2023/08/16 04:52:37;;;;;;;7.80;5.60;;;;;;;;;;5004734;28;20444;-66
2023/08/16 04:55:03;;;;;;;8.35;5.68;;;;;;;;;;5004844;28;20099;-64
2023/08/16 04:57:28;;;;;;;7.10;5.18;;;;;;;;;;5006410;28;21076;-67
2023/08/16 04:59:56;;;;;;;7.07;5.43;;;;;;;;;;5004596;28;20043;-64
2023/08/16 05:02:21;;;;;;;7.43;5.35;;;;;;;;;;5006478;28;20398;-66
2023/08/16 05:04:46;;;;;;;7.22;5.68;;;;;;;;;;5007218;28;20031;-68
2023/08/16 05:07:12;;;;;;;7.17;5.30;;;;;;;;;;5006833;28;20033;-66
2023/08/16 05:09:42;;;;;;;8.18;5.80;;;;;;;;;;5029315;28;20280;-63
2023/08/16 05:12:07;;;;;;;6.82;5.47;;;;;;;;;;5010846;28;20014;-63
2023/08/16 05:14:32;;;;;;;6.77;5.30;;;;;;;;;;5017526;28;20032;-64
2023/08/16 05:17:00;;;;;;;7.03;5.10;;;;;;;;;;5011582;28;20479;-64
2023/08/16 05:19:26;;;;;;;7.07;4.88;;;;;;;;;;5012988;28;20264;-64
2023/08/16 05:21:51;;;;;;;8.80;5.67;;;;;;;;;;5012260;28;20099;-63
2023/08/16 05:24:16;;;;;;;8.07;5.70;;;;;;;;;;5012715;28;20021;-66
2023/08/16 05:26:42;;;;;;;7.47;5.43;;;;;;;;;;5011217;28;20880;-64
2023/08/16 05:29:07;;;;;;;7.68;5.45;;;;;;;;;;5015510;28;20268;-65
2023/08/16 05:31:34;;;;;;;7.95;4.93;;;;;;;;;;5015437;28;20056;-63
2023/08/16 05:34:02;;;;;;;7.93;5.00;;;;;;;;;;5006195;28;20083;-64
2023/08/16 05:36:28;;;;;;;6.20;4.80;;;;;;;;;;5006951;28;20040;-63
2023/08/16 05:38:56;;;;;;;6.90;4.97;;;;;;;;;;5014209;28;20026;-65
2023/08/16 05:41:21;;;;;;;6.80;5.07;;;;;;;;;;5032868;28;20801;-63
2023/08/16 05:43:47;;;;;;;5.93;4.53;;;;;;;;;;5014973;28;20026;-64
2023/08/16 05:46:12;;;;;;;8.23;5.17;;;;;;;;;;5012927;28;20411;-65
2023/08/16 05:48:37;;;;;;;7.07;4.67;;;;;;;;;;5014000;28;20037;-65
2023/08/16 05:51:02;;;;;;;6.93;4.80;;;;;;;;;;5013349;28;20248;-63
2023/08/16 05:53:28;;;;;;;6.00;4.60;;;;;;;;;;5016414;28;20439;-64
2023/08/16 05:55:53;;;;;;;6.57;4.60;;;;;;;;;;5020780;28;20291;-63
2023/08/16 05:58:20;;;;;;;7.57;5.00;;;;;;;;;;5015248;28;20021;-65
2023/08/16 06:00:48;;;;;;;8.68;5.10;;;;;;;;;;5018195;28;20079;-64
2023/08/16 06:03:14;;;;;;;7.53;5.45;;;;;;;;;;5015991;28;20033;-63
2023/08/16 06:05:39;;;;;;;10.65;5.35;;;;;;;;;;5013591;28;20021;-64
2023/08/16 06:08:05;;;;;;;6.43;5.07;;;;;;;;;;5015707;28;20456;-65
2023/08/16 06:10:30;;;;;;;8.02;5.05;;;;;;;;;;5021862;28;20099;-64
2023/08/16 06:12:55;;;;;;;8.82;5.40;;;;;;;;;;5017405;28;20036;-64
2023/08/16 06:15:21;;;;;;;6.63;5.20;;;;;;;;;;5024199;28;20030;-64
2023/08/16 06:17:46;;;;;;;6.40;5.00;;;;;;;;;;5014819;28;20509;-63
2023/08/16 06:20:11;;;;;;;8.02;5.07;;;;;;;;;;5011852;28;20257;-63
2023/08/16 06:22:40;;;;;;;6.60;5.03;;;;;;;;;;5033665;28;20041;-63
2023/08/16 06:25:09;;;;;;;7.30;5.35;;;;;;;;;;5017557;28;20382;-63
2023/08/16 06:27:34;;;;;;;7.78;5.25;;;;;;;;;;5035468;28;20021;-64
2023/08/16 06:30:04;;;;;;;11.87;5.40;;;;;;;;;;5015285;28;20017;-62
2023/08/16 06:32:29;;;;;;;7.80;4.78;;;;;;;;;;5008302;28;20343;-64
2023/08/16 06:34:55;;;;;;;6.80;4.83;;;;;;;;;;5010555;28;20027;-62
2023/08/16 06:37:20;;;;;;;7.23;5.00;;;;;;;;;;5014320;28;20265;-64
2023/08/16 06:39:46;;;;;;;8.50;4.70;;;;;;;;;;5023143;28;20251;-63
2023/08/16 06:42:11;;;;;;;7.03;4.70;;;;;;;;;;5020600;28;20079;-63
2023/08/16 06:44:37;;;;;;;7.32;4.65;;;;;;;;;;5013034;28;20021;-64
2023/08/16 06:47:05;;;;;;;6.63;5.00;;;;;;;;;;5019458;28;20038;-64
2023/08/16 06:49:31;;;;;;;8.10;4.60;;;;;;;;;;5009566;28;20026;-64
2023/08/16 06:51:56;;;;;;;7.87;4.50;;;;;;;;;;5010031;28;20499;-64
2023/08/16 06:54:24;;;;;;;6.95;4.72;;;;;;;;;;5018499;28;20013;-65
2023/08/16 06:56:49;;;;;;;7.32;4.60;;;;;;;;;;5015287;28;20025;-68
2023/08/16 06:59:15;;;;;;;6.63;4.37;;;;;;;;;;5021388;28;20018;-64
2023/08/16 07:01:40;;;;;;;6.97;4.60;;;;;;;;;;5019254;28;20026;-66
2023/08/16 07:04:06;;;;;;;8.53;5.00;;;;;;;;;;5017245;28;20025;-64
2023/08/16 07:06:33;;;;;;;6.27;4.47;;;;;;;;;;5017848;28;21064;-63
2023/08/16 07:08:59;;;;;;;7.00;4.75;;;;;;;;;;5016610;28;20260;-63
2023/08/16 07:11:25;;;;;;;8.93;4.90;;;;;;;;;;5018812;28;20022;-64
2023/08/16 07:13:55;;;;;;;7.68;4.60;;;;;;;;;;5014307;28;20196;-65
2023/08/16 07:16:20;;;;;;;6.15;4.60;;;;;;;;;;5016605;28;20540;-65
2023/08/16 07:18:46;;;;;;;6.63;4.53;;;;;;;;;;5017920;28;20117;-62
2023/08/16 07:21:11;;;;;;;7.60;4.70;;;;;;;;;;5022823;28;20422;-63
2023/08/16 07:23:36;;;;;;;8.30;4.50;;;;;;;;;;5017260;28;20276;-66
2023/08/16 07:26:02;;;;;;;6.27;4.93;;;;;;;;;;5015251;28;20026;-64
2023/08/16 07:28:27;;;;;;;7.05;5.00;;;;;;;;;;5010911;28;20294;-63
2023/08/16 07:30:55;;;;;;;6.28;4.63;;;;;;;;;;5015703;28;20101;-65
2023/08/16 07:33:21;;;;;;;6.78;4.65;;;;;;;;;;5019363;28;20025;-65
2023/08/16 07:35:49;;;;;;;6.82;4.20;;;;;;;;;;5018905;28;20024;-64
2023/08/16 07:38:15;;;;;;;7.28;5.03;;;;;;;;;;5019644;28;20037;-65
2023/08/16 07:40:45;;;;;;;7.82;5.05;;;;;;;;;;5018963;28;20472;-65
2023/08/16 07:43:11;;;;;;;6.50;4.72;;;;;;;;;;5031844;28;20026;-66
2023/08/16 07:45:36;;;;;;;6.63;4.65;;;;;;;;;;5021412;28;20025;-64
2023/08/16 07:48:01;;;;;;;6.77;4.97;;;;;;;;;;5019078;28;20041;-66
2023/08/16 07:50:27;;;;;;;7.65;4.97;;;;;;;;;;5016750;28;20577;-65
2023/08/16 07:52:52;;;;;;;8.90;5.00;;;;;;;;;;5017428;28;20661;-66
2023/08/16 07:55:17;;;;;;;8.70;4.27;;;;;;;;;;5006468;28;20072;-65
2023/08/16 07:57:42;;;;;;;6.40;4.80;;;;;;;;;;5020200;28;20025;-64
2023/08/16 08:00:12;;;;;;;6.37;5.10;;;;;;;;;;5019512;28;20040;-64
2023/08/16 08:02:38;;;;;;;7.55;5.15;;;;;;;;;;5021798;28;20021;-64
2023/08/16 08:05:05;;;;;;;7.55;4.60;;;;;;;;;;5016125;28;20024;-65
2023/08/16 08:07:30;;;;;;;6.63;4.95;;;;;;;;;;5016002;28;20021;-63
2023/08/16 08:09:57;;;;;;;6.87;4.80;;;;;;;;;;5016711;28;20557;-64
2023/08/16 08:12:22;;;;;;;6.30;4.93;;;;;;;;;;5031908;28;20252;-67
2023/08/16 08:14:47;;;;;;;8.60;5.13;;;;;;;;;;5011940;28;20049;-64
2023/08/16 08:17:13;;;;;;;7.10;5.37;;;;;;;;;;5016072;28;20697;-64
2023/08/16 08:19:38;;;;;;;7.47;5.03;;;;;;;;;;5014003;28;20022;-63
2023/08/16 08:22:06;;;;;;;7.70;4.97;;;;;;;;;;5016623;28;20917;-65
2023/08/16 08:24:31;;;;;;;6.82;5.30;;;;;;;;;;5029212;28;20034;-64
2023/08/16 08:26:57;;;;;;;8.00;5.07;;;;;;;;;;5015581;28;20073;-64
2023/08/16 08:29:25;;;;;;;6.53;5.05;;;;;;;;;;5012003;28;20310;-66
2023/08/16 08:31:50;;;;;;;6.38;4.95;;;;;;;;;;5015277;28;20049;-63
2023/08/16 08:34:16;;;;;;;6.13;4.80;;;;;;;;;;5014665;28;20032;-65
2023/08/16 08:36:41;;;;;;;7.00;4.60;;;;;;;;;;5014377;28;20030;-66
2023/08/16 08:39:06;;;;;;;7.23;4.47;;;;;;;;;;5015029;28;20022;-65
2023/08/16 08:41:34;;;;;;;6.05;4.65;;;;;;;;;;5026531;28;20025;-63
2023/08/16 08:44:00;;;;;;;6.15;4.40;;;;;;;;;;5014921;28;20060;-64
2023/08/16 08:46:27;;;;;;;6.90;4.63;;;;;;;;;;5016169;28;20053;-65
2023/08/16 08:48:53;;;;;;;8.88;4.93;;;;;;;;;;5013202;28;20028;-64
2023/08/16 08:51:18;;;;;;;6.80;4.95;;;;;;;;;;5011814;28;20029;-62
2023/08/16 08:53:43;;;;;;;6.50;4.57;;;;;;;;;;5015299;28;20021;-66
2023/08/16 08:56:14;;;;;;;6.78;4.80;;;;;;;;;;5014738;28;20726;-64
2023/08/16 08:58:40;;;;;;;8.63;4.85;;;;;;;;;;5013733;28;20041;-66
2023/08/16 09:01:07;;;;;;;9.73;5.38;;;;;;;;;;5011343;28;21601;-64
2023/08/16 09:03:35;;;;;;;7.82;4.47;;;;;;;;;;5016615;28;20095;-64
2023/08/16 09:06:03;;;;;;;6.10;4.55;;;;;;;;;;5012879;28;20083;-64
2023/08/16 09:08:29;;;;;;;8.40;4.93;;;;;;;;;;5012157;28;20024;-64
2023/08/16 09:10:54;;;;;;;9.23;5.53;;;;;;;;;;5014665;28;20553;-66
2023/08/16 09:13:19;;;;;;;7.03;4.90;;;;;;;;;;5015407;28;20774;-65
2023/08/16 09:15:45;;;;;;;7.88;5.15;;;;;;;;;;5014532;28;20767;-66
2023/08/16 09:18:10;;;;;;;8.53;5.13;;;;;;;;;;5016795;28;20025;-63
2023/08/16 09:20:36;;;;;;;7.03;5.07;;;;;;;;;;5014341;28;20084;-64
2023/08/16 09:23:01;;;;;;;7.65;5.10;;;;;;;;;;5009289;28;20050;-64
2023/08/16 09:25:30;;;;;;;6.80;5.03;;;;;;;;;;5017737;28;20025;-64
2023/08/16 09:27:58;;;;;;;;;;;;;;;;;;5021736;28;20126;-65
2023/08/16 09:30:29;;;;;;;6.82;5.10;;;;;;;;;;5021560;28;19919;-64
2023/08/16 09:32:55;;;;;;;7.25;5.80;;;;;;;;;;5023627;28;20033;-65
2023/08/16 09:35:28;;;;;;;8.68;5.75;;;;;;;;;;5016171;28;20023;-62
2023/08/16 09:38:00;;;;;;;6.95;5.20;;;;;;;;;;5016223;28;20048;-64
2023/08/16 09:40:25;;;;;;;7.82;5.65;;;;;;;;;;5018411;28;20092;-63
2023/08/16 09:42:52;;;;;;;7.72;5.57;;;;;;;;;;5020791;28;20028;-63
2023/08/16 09:45:33;;;;;;;7.05;5.53;;;;;;;;;;5014428;28;20014;-64
2023/08/16 09:48:01;;;;;;;7.43;5.18;;;;;;;;;;5021763;28;20128;-64
2023/08/16 09:50:27;;;;;;;6.03;4.88;;;;;;;;;;5017237;28;20072;-64
2023/08/16 09:52:53;;;;;;;6.97;4.82;;;;;;;;;;5016629;28;20036;-65
2023/08/16 09:55:22;;;;;;;7.00;4.93;;;;;;;;;;5009936;28;20025;-64
2023/08/16 09:57:52;;;;;;;6.93;4.72;;;;;;;;;;5032267;28;20284;-64
2023/08/16 10:00:17;;;;;;;8.80;4.90;;;;;;;;;;5007842;28;20056;-64
2023/08/16 10:02:43;;;;;;;7.82;4.90;;;;;;;;;;5009784;28;20463;-66
2023/08/16 10:05:08;;;;;;;7.40;5.30;;;;;;;;;;5014299;28;20111;-64
2023/08/16 10:07:34;;;;;;;8.15;4.95;;;;;;;;;;5013723;28;20014;-65
2023/08/16 10:09:59;;;;;;;8.32;5.57;;;;;;;;;;5033630;28;20425;-66
2023/08/16 10:12:27;;;;;;;7.10;5.38;;;;;;;;;;5017988;28;20021;-65
2023/08/16 10:14:52;;;;;;;7.35;5.60;;;;;;;;;;5011860;28;20112;-65
2023/08/16 10:17:19;;;;;;;6.07;4.93;;;;;;;;;;5014512;28;20039;-63
2023/08/16 10:19:47;;;;;;;6.72;5.40;;;;;;;;;;5014524;28;20353;-64
2023/08/16 10:22:18;;;;;;;6.95;5.20;;;;;;;;;;5030618;28;20056;-65
2023/08/16 10:24:45;;;;;;;7.00;5.35;;;;;;;;;;5014025;28;20096;-64
2023/08/16 10:27:11;;;;;;;7.57;5.55;;;;;;;;;;5032534;28;20178;-66
2023/08/16 10:29:44;;;;;;;7.15;5.55;;;;;;;;;;5018536;28;20033;-64
2023/08/16 10:32:14;;;;;;;7.38;5.50;;;;;;;;;;5017142;28;20032;-66
2023/08/16 10:34:40;;;;;;;7.65;5.57;;;;;;;;;;5016506;28;20025;-64
2023/08/16 10:37:06;;;;;;;7.32;5.75;;;;;;;;;;5017336;28;20034;-64
2023/08/16 10:39:31;;;;;;;7.85;5.40;;;;;;;;;;5015044;28;20027;-64
2023/08/16 10:42:05;;;;;;;8.35;5.50;;;;;;;;;;5014411;28;20017;-66
2023/08/16 10:44:30;;;;;;;7.68;5.57;;;;;;;;;;5010697;28;20032;-63
2023/08/16 10:46:55;;;;;;;7.60;5.80;;;;;;;;;;5020026;28;20021;-65
2023/08/16 10:49:25;;;;;;;7.07;5.57;;;;;;;;;;5026532;28;20508;-65
2023/08/16 10:51:51;;;;;;;7.57;5.82;;;;;;;;;;5035484;28;20037;-65
2023/08/16 10:54:17;;;;;;;6.75;5.75;;;;;;;;;;5011582;28;20046;-63
2023/08/16 10:56:47;;;;;;;8.20;5.97;;;;;;;;;;5013982;28;20097;-67
2023/08/16 10:59:14;;;;;;;7.88;5.88;;;;;;;;;;5019376;28;20121;-64
2023/08/16 11:01:45;;;;;;;10.13;6.15;;;;;;;;;;5015147;28;20295;-65
2023/08/16 11:04:10;;;;;;;7.65;6.03;;;;;;;;;;5036675;28;20029;-64
2023/08/16 11:06:37;;;;;;;7.75;6.18;;;;;;;;;;5033680;28;20025;-65
2023/08/16 11:09:03;;;;;;;7.30;6.25;;;;;;;;;;5015255;28;20698;-63
2023/08/16 11:11:28;;;;;;;7.32;5.80;;;;;;;;;;5007242;28;20033;-64
2023/08/16 11:13:58;;;;;;;8.30;6.27;;;;;;;;;;5016242;28;20029;-64
2023/08/16 11:16:25;;;;;;;7.32;6.20;;;;;;;;;;5026796;28;20025;-65
2023/08/16 11:18:51;;;;;;;8.05;6.40;;;;;;;;;;5014370;28;20029;-65
2023/08/16 11:21:19;;;;;;;7.40;5.73;;;;;;;;;;5017766;28;20049;-64
2023/08/16 11:23:45;;;;;;;7.53;6.30;;;;;;;;;;5019067;28;20118;-64
2023/08/16 11:26:13;;;;;;;7.30;5.97;;;;;;;;;;5021638;28;20153;-63
2023/08/16 11:28:42;;;;;;;7.93;6.03;;;;;;;;;;5016395;28;20021;-63
2023/08/16 11:31:08;;;;;;;8.68;6.70;;;;;;;;;;5017914;28;20037;-64
2023/08/16 11:33:37;;;;;;;7.45;6.18;;;;;;;;;;5018350;28;20159;-64
2023/08/16 11:36:20;;;;;;;7.97;5.90;;;;;;;;;;5033348;28;20013;-68
2023/08/16 11:38:49;;;;;;;7.82;6.40;;;;;;;;;;5028979;28;20035;-66
2023/08/16 11:41:19;;;;;;;9.82;5.90;;;;;;;;;;5014563;28;20017;-65
2023/08/16 11:43:44;;;;;;;8.05;6.28;;;;;;;;;;5022669;28;20021;-66
2023/08/16 11:46:10;;;;;;;7.90;6.05;;;;;;;;;;5009345;28;20036;-68
2023/08/16 11:48:35;;;;;;;7.80;6.47;;;;;;;;;;5008762;28;20029;-65
2023/08/16 11:51:05;;;;;;;9.63;6.80;;;;;;;;;;5008112;28;20613;-66
2023/08/16 11:53:34;;;;;;;7.82;6.22;;;;;;;;;;5028070;28;20030;-65
2023/08/16 11:56:08;;;;;;;8.88;6.40;;;;;;;;;;5012085;28;20049;-66
2023/08/16 11:58:46;;;;;;;7.82;6.70;;;;;;;;;;5031258;28;20052;-67
2023/08/16 12:01:14;;;;;;;8.65;7.25;;;;;;;;;;5016638;28;20083;-67
2023/08/16 12:03:40;;;;;;;8.25;6.60;;;;;;;;;;5014557;28;20029;-66
2023/08/16 12:06:08;;;;;;;7.88;6.40;;;;;;;;;;5017608;28;20116;-67
2023/08/16 12:08:36;;;;;;;8.15;6.50;;;;;;;;;;5015912;28;20193;-65
2023/08/16 12:11:02;;;;;;;9.30;6.60;;;;;;;;;;5016893;28;20459;-65
2023/08/16 12:13:27;;;;;;;8.07;6.93;;;;;;;;;;5018237;28;20021;-66
2023/08/16 12:15:55;;;;;;;8.52;6.53;;;;;;;;;;5016074;28;20033;-66
2023/08/16 12:18:21;;;;;;;7.93;6.35;;;;;;;;;;5016781;28;20017;-67
2023/08/16 12:20:57;;;;;;;7.40;6.00;;;;;;;;;;5017570;28;20311;-65
2023/08/16 12:23:22;;;;;;;8.52;6.72;;;;;;;;;;5018478;28;20030;-66
2023/08/16 12:25:48;;;;;;;8.47;6.47;;;;;;;;;;5016575;28;20383;-65
2023/08/16 12:28:13;;;;;;;10.40;6.95;;;;;;;;;;5019933;28;20040;-65
2023/08/16 12:30:38;;;;;;;8.57;6.33;;;;;;;;;;5012607;28;20025;-66
2023/08/16 12:33:06;;;;;;;7.80;6.63;;;;;;;;;;5020118;28;20047;-64
2023/08/16 12:35:32;;;;;;;8.90;6.72;;;;;;;;;;5016934;28;20029;-65
2023/08/16 12:38:02;;;;;;;7.38;6.68;;;;;;;;;;5020119;28;20089;-66
2023/08/16 12:40:29;;;;;;;8.57;6.60;;;;;;;;;;5014703;28;20021;-65
2023/08/16 12:42:55;;;;;;;7.95;6.00;;;;;;;;;;5015963;28;20523;-65
2023/08/16 12:45:20;;;;;;;9.30;6.65;;;;;;;;;;5015244;28;20055;-66
2023/08/16 12:47:45;;;;;;;8.93;6.97;;;;;;;;;;5012634;28;20021;-64
2023/08/16 12:50:14;;;;;;;9.13;6.83;;;;;;;;;;5032719;28;20057;-66
2023/08/16 12:52:39;;;;;;;10.25;7.13;;;;;;;;;;5018010;28;20028;-66
2023/08/16 12:55:06;;;;;;;7.97;6.83;;;;;;;;;;5012022;28;20025;-64
2023/08/16 12:57:36;;;;;;;9.38;6.85;;;;;;;;;;5031131;28;20022;-64
2023/08/16 13:00:02;;;;;;;8.77;6.80;;;;;;;;;;5015417;28;20028;-65
2023/08/16 13:02:27;;;;;;;9.73;6.85;;;;;;;;;;5020295;28;20516;-65
2023/08/16 13:04:57;;;;;;;8.13;7.30;;;;;;;;;;5019663;28;20025;-66
2023/08/16 13:07:22;;;;;;;8.77;6.95;;;;;;;;;;5014243;28;20361;-66
2023/08/16 13:09:48;;;;;;;8.27;6.53;;;;;;;;;;5016260;28;20104;-64
2023/08/16 13:12:13;;;;;;;8.87;6.80;;;;;;;;;;5017142;28;20095;-67
2023/08/16 13:14:38;;;;;;;7.87;6.70;;;;;;;;;;5017150;28;20021;-67
2023/08/16 13:17:04;;;;;;;7.78;6.97;;;;;;;;;;5014633;28;20575;-67
2023/08/16 13:19:29;;;;;;;8.30;7.05;;;;;;;;;;5015069;28;20452;-65
2023/08/16 13:21:55;;;;;;;8.50;6.88;;;;;;;;;;5016415;28;20049;-65
2023/08/16 13:24:23;;;;;;;7.57;6.45;;;;;;;;;;5015542;28;20067;-64
2023/08/16 13:26:51;;;;;;;8.98;7.13;;;;;;;;;;5016066;28;20068;-66
2023/08/16 13:29:16;;;;;;;8.18;7.03;;;;;;;;;;5013742;28;20712;-65
2023/08/16 13:31:42;;;;;;;8.02;6.45;;;;;;;;;;5024560;28;20024;-66
2023/08/16 13:34:07;;;;;;;8.82;6.88;;;;;;;;;;5015663;28;20647;-66
2023/08/16 13:36:34;;;;;;;9.77;6.63;;;;;;;;;;5031127;28;20026;-65
2023/08/16 13:39:03;;;;;;;7.63;6.47;;;;;;;;;;5015088;28;20314;-66
2023/08/16 13:41:29;;;;;;;6.93;6.20;;;;;;;;;;5014459;28;20018;-65
2023/08/16 13:43:55;;;;;;;8.30;6.57;;;;;;;;;;5017656;28;20108;-67
2023/08/16 13:46:20;;;;;;;8.38;6.53;;;;;;;;;;5015687;28;20032;-65
2023/08/16 13:48:45;;;;;;;8.60;7.20;;;;;;;;;;5015424;28;20017;-66
2023/08/16 13:51:11;;;;;;;11.10;6.93;;;;;;;;;;5008146;28;20013;-66
2023/08/16 13:53:36;;;;;;;8.23;6.45;;;;;;;;;;5013434;28;20030;-66
2023/08/16 13:56:02;;;;;;;7.68;6.88;;;;;;;;;;5013462;28;20038;-66
2023/08/16 13:58:34;;;;;;;8.68;6.88;;;;;;;;;;5018646;28;20022;-66
2023/08/16 14:00:59;;;;;;;10.07;6.53;;;;;;;;;;5014852;28;20032;-68
2023/08/16 14:03:24;;;;;;;8.95;6.28;;;;;;;;;;5015643;28;20021;-66
2023/08/16 14:05:53;;;;;;;8.18;6.35;;;;;;;;;;5009811;28;20033;-64
2023/08/16 14:08:18;;;;;;;7.68;6.50;;;;;;;;;;5012760;28;20495;-64
2023/08/16 14:10:44;;;;;;;8.37;6.23;;;;;;;;;;5017318;28;20021;-63
2023/08/16 14:13:12;;;;;;;8.05;6.20;;;;;;;;;;5017795;28;20537;-65
2023/08/16 14:15:38;;;;;;;10.32;6.78;;;;;;;;;;5019213;28;20063;-64
2023/08/16 14:18:03;;;;;;;7.20;6.28;;;;;;;;;;5019508;28;20033;-64
2023/08/16 14:20:31;;;;;;;9.38;6.78;;;;;;;;;;5016496;28;20029;-63
2023/08/16 14:22:56;;;;;;;8.45;6.43;;;;;;;;;;5017554;28;20570;-63
2023/08/16 14:25:24;;;;;;;7.97;6.60;;;;;;;;;;5014414;28;20020;-64
2023/08/16 14:27:49;;;;;;;7.53;6.35;;;;;;;;;;5017391;28;20161;-64
2023/08/16 14:30:17;;;;;;;9.10;6.72;;;;;;;;;;5015741;28;20366;-65
2023/08/16 14:32:42;;;;;;;8.93;6.88;;;;;;;;;;5016687;28;20868;-65
2023/08/16 14:35:08;;;;;;;7.45;6.47;;;;;;;;;;5011147;28;20165;-63
2023/08/16 14:37:33;;;;;;;8.88;6.72;;;;;;;;;;5008876;28;20028;-63
2023/08/16 14:39:58;;;;;;;8.83;6.47;;;;;;;;;;5017843;28;20017;-64